createdAt,value
2016-04-17T00:00:08.771Z,0
2016-04-17T00:01:27.945Z,0
2016-04-17T00:02:08.729Z,0
2016-04-17T00:04:11.360Z,0
2016-04-17T00:04:43.126Z,0
2016-04-17T00:05:23.988Z,0
2016-04-17T00:07:33.524Z,0
2016-04-17T00:09:30.483Z,0
2016-04-17T00:09:43.155Z,0
2016-04-17T00:10:43.110Z,0
2016-04-17T00:11:49.366Z,0
2016-04-17T00:12:49.462Z,0
2016-04-17T00:14:02.323Z,0
2016-04-17T00:14:55.873Z,0
2016-04-17T00:16:08.814Z,0
2016-04-17T00:16:43.376Z,0
2016-04-17T00:18:40.163Z,0
2016-04-17T00:18:55.744Z,0
2016-04-17T00:19:52.918Z,0
2016-04-17T00:21:11.953Z,0
2016-04-17T00:22:05.580Z,0
2016-04-17T00:23:11.973Z,0
2016-04-17T00:24:05.523Z,0
2016-04-17T00:25:12.057Z,0
2016-04-17T00:26:05.560Z,0
2016-04-17T00:28:08.174Z,0
2016-04-17T00:28:33.690Z,0
2016-04-17T00:29:20.785Z,0
2016-04-17T00:30:39.773Z,0
2016-04-17T00:31:22.198Z,0
2016-04-17T00:33:17.749Z,0
2016-04-17T00:33:30.328Z,0
2016-04-17T00:35:59.087Z,0
2016-04-17T00:36:36.462Z,0
2016-04-17T00:37:33.449Z,0
2016-04-17T00:38:46.248Z,0
2016-04-17T00:39:39.845Z,0
2016-04-17T00:40:52.693Z,0
2016-04-17T00:41:52.712Z,0
2016-04-17T00:42:52.746Z,0
2016-04-17T00:44:24.904Z,0
2016-04-17T00:45:03.126Z,0
2016-04-17T00:46:34.644Z,0
2016-04-17T00:46:59.928Z,0
2016-04-17T00:47:47.225Z,0
2016-04-17T00:48:47.712Z,0
2016-04-17T00:49:53.703Z,0
2016-04-17T00:50:53.595Z,0
2016-04-17T00:51:59.942Z,0
2016-04-17T00:53:06.492Z,0
2016-04-17T00:54:00.104Z,0
2016-04-17T00:55:13.122Z,0
2016-04-17T00:56:06.531Z,0
2016-04-17T00:57:20.049Z,0
2016-04-17T00:58:18.661Z,0
2016-04-17T00:58:47.364Z,0
2016-04-17T00:59:47.382Z,0
2016-04-17T01:00:47.823Z,0
2016-04-17T01:01:47.294Z,0
2016-04-17T01:02:53.690Z,0
2016-04-17T01:03:47.440Z,0
2016-04-17T01:05:06.633Z,0
2016-04-17T01:05:47.477Z,0
2016-04-17T01:07:43.951Z,0
2016-04-17T01:07:56.516Z,0
2016-04-17T01:08:56.565Z,0
2016-04-17T01:09:57.162Z,0
2016-04-17T01:11:09.306Z,0
2016-04-17T01:12:02.824Z,0
2016-04-17T01:13:15.812Z,0
2016-04-17T01:14:09.517Z,0
2016-04-17T01:15:27.909Z,0
2016-04-17T01:16:15.865Z,0
2016-04-17T01:17:59.278Z,0
2016-04-17T01:18:31.028Z,0
2016-04-17T01:19:11.859Z,0
2016-04-17T01:21:21.426Z,0
2016-04-17T01:22:21.460Z,0
2016-04-17T01:23:22.056Z,0
2016-04-17T01:24:28.012Z,0
2016-04-17T01:25:40.703Z,0
2016-04-17T01:26:34.267Z,0
2016-04-17T01:28:12.882Z,0
2016-04-17T01:29:53.763Z,0
2016-04-17T01:30:19.060Z,0
2016-04-17T01:31:06.328Z,0
2016-04-17T01:32:06.955Z,0
2016-04-17T01:33:12.646Z,0
2016-04-17T01:34:06.788Z,0
2016-04-17T01:35:25.605Z,0
2016-04-17T01:36:06.404Z,0
2016-04-17T01:38:41.628Z,0
2016-04-17T01:39:41.943Z,0
2016-04-17T01:41:16.027Z,0
2016-04-17T01:42:28.779Z,0
2016-04-17T01:43:16.845Z,0
2016-04-17T01:44:28.800Z,0
2016-04-17T01:45:16.100Z,0
2016-04-17T01:46:16.071Z,0
2016-04-17T01:47:16.184Z,0
2016-04-17T01:48:16.139Z,0
2016-04-17T01:49:16.126Z,0
2016-04-17T01:50:16.175Z,0
2016-04-17T01:51:16.194Z,0
2016-04-17T01:52:28.900Z,0
2016-04-17T01:53:28.981Z,0
2016-04-17T01:54:35.422Z,0
2016-04-17T01:55:41.924Z,0
2016-04-17T01:56:47.598Z,0
2016-04-17T01:58:29.135Z,0
2016-04-17T01:59:16.263Z,0
2016-04-17T02:00:16.453Z,0
2016-04-17T02:01:23.158Z,0
2016-04-17T02:02:29.083Z,0
2016-04-17T02:03:16.335Z,0
2016-04-17T02:04:16.370Z,0
2016-04-17T02:05:29.107Z,0
2016-04-17T02:06:16.969Z,0
2016-04-17T02:07:16.393Z,0
2016-04-17T02:08:16.365Z,0
2016-04-17T02:09:29.149Z,0
2016-04-17T02:10:17.058Z,0
2016-04-17T02:12:24.720Z,0
2016-04-17T02:13:24.628Z,0
2016-04-17T02:14:24.646Z,0
2016-04-17T02:15:30.898Z,0
2016-04-17T02:16:25.090Z,0
2016-04-17T02:17:43.873Z,0
2016-04-17T02:18:32.470Z,0
2016-04-17T02:19:43.894Z,0
2016-04-17T02:20:27.866Z,0
2016-04-17T02:21:24.728Z,0
2016-04-17T02:22:24.783Z,0
2016-04-17T02:23:24.957Z,0
2016-04-17T02:24:24.788Z,0
2016-04-17T02:25:24.759Z,0
2016-04-17T02:26:24.777Z,0
2016-04-17T02:27:24.952Z,0
2016-04-17T02:28:25.424Z,0
2016-04-17T02:29:24.941Z,0
2016-04-17T02:30:24.866Z,0
2016-04-17T02:31:24.900Z,0
2016-04-17T02:32:24.903Z,0
2016-04-17T02:33:24.953Z,0
2016-04-17T02:34:37.674Z,0
2016-04-17T02:35:24.896Z,0
2016-04-17T02:36:44.132Z,0
2016-04-17T02:37:24.948Z,0
2016-04-17T02:38:24.966Z,0
2016-04-17T02:39:24.969Z,0
2016-04-17T02:40:24.971Z,0
2016-04-17T02:41:31.271Z,0
2016-04-17T02:42:25.008Z,0
2016-04-17T02:43:25.026Z,0
2016-04-17T02:44:31.154Z,0
2016-04-17T02:45:25.063Z,0
2016-04-17T02:47:15.647Z,0
2016-04-17T02:47:28.178Z,0
2016-04-17T02:48:28.211Z,0
2016-04-17T02:49:28.231Z,0
2016-04-17T02:50:29.655Z,0
2016-04-17T02:51:41.017Z,0
2016-04-17T02:52:28.285Z,0
2016-04-17T02:53:47.319Z,0
2016-04-17T02:54:28.305Z,0
2016-04-17T02:56:32.186Z,0
2016-04-17T02:56:44.733Z,0
2016-04-17T02:57:44.783Z,0
2016-04-17T02:58:44.801Z,0
2016-04-17T02:59:57.557Z,0
2016-04-17T03:00:45.010Z,0
2016-04-17T03:02:04.015Z,0
2016-04-17T03:02:45.015Z,0
2016-04-17T03:03:44.846Z,0
2016-04-17T03:04:51.132Z,0
2016-04-17T03:05:44.882Z,0
2016-04-17T03:06:57.622Z,0
2016-04-17T03:07:44.888Z,0
2016-04-17T03:08:44.921Z,0
2016-04-17T03:09:51.209Z,0
2016-04-17T03:10:51.226Z,0
2016-04-17T03:12:04.260Z,0
2016-04-17T03:13:04.170Z,0
2016-04-17T03:14:16.298Z,0
2016-04-17T03:15:10.659Z,0
2016-04-17T03:16:16.303Z,0
2016-04-17T03:17:17.023Z,0
2016-04-17T03:19:00.201Z,0
2016-04-17T03:20:00.250Z,0
2016-04-17T03:21:00.253Z,0
2016-04-17T03:22:01.678Z,0
2016-04-17T03:23:00.275Z,0
2016-04-17T03:24:13.043Z,0
2016-04-17T03:25:00.202Z,0
2016-04-17T03:26:19.611Z,0
2016-04-17T03:27:00.394Z,0
2016-04-17T03:28:50.897Z,0
2016-04-17T03:29:03.524Z,0
2016-04-17T03:30:34.794Z,0
2016-04-17T03:31:16.218Z,0
2016-04-17T03:32:03.486Z,0
2016-04-17T03:33:16.270Z,0
2016-04-17T03:34:03.523Z,0
2016-04-17T03:35:16.290Z,0
2016-04-17T03:36:03.450Z,0
2016-04-17T03:37:03.593Z,0
2016-04-17T03:38:16.190Z,0
2016-04-17T03:39:03.629Z,0
2016-04-17T03:40:22.960Z,0
2016-04-17T03:41:04.229Z,0
2016-04-17T03:42:03.810Z,0
2016-04-17T03:43:03.656Z,0
2016-04-17T03:44:04.253Z,0
2016-04-17T03:45:10.006Z,0
2016-04-17T03:46:04.508Z,0
2016-04-17T03:47:16.433Z,0
2016-04-17T03:48:03.701Z,0
2016-04-17T03:50:00.723Z,0
2016-04-17T03:50:13.192Z,0
2016-04-17T03:51:26.069Z,0
2016-04-17T03:52:19.633Z,0
2016-04-17T03:53:27.512Z,0
2016-04-17T03:54:13.373Z,0
2016-04-17T03:55:13.439Z,0
2016-04-17T03:56:19.675Z,0
2016-04-17T03:57:14.006Z,0
2016-04-17T03:59:16.590Z,0
2016-04-17T04:00:29.327Z,0
2016-04-17T04:01:16.596Z,0
2016-04-17T04:02:42.364Z,0
2016-04-17T04:03:16.601Z,0
2016-04-17T04:05:19.419Z,0
2016-04-17T04:05:57.672Z,0
2016-04-17T04:06:32.031Z,0
2016-04-17T04:08:34.615Z,0
2016-04-17T04:09:12.835Z,0
2016-04-17T04:09:47.226Z,5
2016-04-17T04:11:49.825Z,5
2016-04-17T04:12:02.391Z,5
2016-04-17T04:13:02.503Z,5
2016-04-17T04:14:09.318Z,5
2016-04-17T04:15:03.054Z,5
2016-04-17T04:16:05.480Z,5
2016-04-17T04:17:09.420Z,10
2016-04-17T04:18:15.204Z,10
2016-04-17T04:19:15.222Z,10
2016-04-17T04:20:53.008Z,10
2016-04-17T04:21:31.258Z,15
2016-04-17T04:24:17.736Z,15
2016-04-17T04:24:47.236Z,20
2016-04-17T04:25:46.597Z,20
2016-04-17T04:26:59.211Z,20
2016-04-17T04:27:59.199Z,25
2016-04-17T04:28:49.636Z,25
2016-04-17T04:30:05.845Z,25
2016-04-17T04:30:59.411Z,30
2016-04-17T04:32:12.210Z,30
2016-04-17T04:33:06.338Z,30
2016-04-17T04:34:49.778Z,35
2016-04-17T04:35:21.672Z,35
2016-04-17T04:37:24.786Z,40
2016-04-17T04:38:31.273Z,45
2016-04-17T04:40:02.591Z,45
2016-04-17T04:40:40.872Z,45
2016-04-17T04:41:15.156Z,50
2016-04-17T04:43:17.787Z,50
2016-04-17T04:43:56.039Z,55
2016-04-17T04:44:30.398Z,55
2016-04-17T04:46:01.684Z,60
2016-04-17T04:46:43.106Z,60
2016-04-17T04:48:34.440Z,65
2016-04-17T04:49:12.693Z,65
2016-04-17T04:49:47.037Z,65
2016-04-17T04:51:49.730Z,70
2016-04-17T04:52:15.123Z,70
2016-04-17T04:53:02.314Z,75
2016-04-17T04:54:21.566Z,75
2016-04-17T04:55:15.131Z,80
2016-04-17T04:56:08.618Z,80
2016-04-17T04:57:21.558Z,80
2016-04-17T04:58:21.577Z,85
2016-04-17T04:59:21.610Z,85
2016-04-17T05:00:59.397Z,90
2016-04-17T05:01:11.944Z,90
2016-04-17T05:02:11.978Z,90
2016-04-17T05:03:11.246Z,90
2016-04-17T05:04:18.280Z,95
2016-04-17T05:05:18.268Z,95
2016-04-17T05:06:24.802Z,95
2016-04-17T05:07:24.835Z,100
2016-04-17T05:08:31.260Z,100
2016-04-17T05:11:44.330Z,105
2016-04-17T05:14:30.823Z,115
2016-04-17T05:15:25.200Z,115
2016-04-17T05:15:59.563Z,115
2016-04-17T05:18:09.131Z,120
2016-04-17T05:19:09.148Z,120
2016-04-17T05:20:21.917Z,125
2016-04-17T05:21:21.716Z,125
2016-04-17T05:22:28.360Z,130
2016-04-17T05:23:28.378Z,130
2016-04-17T05:24:09.178Z,135
2016-04-17T05:25:34.649Z,140
2016-04-17T05:26:09.839Z,140
2016-04-17T05:28:11.861Z,155
2016-04-17T05:28:50.095Z,160
2016-04-17T05:29:43.660Z,165
2016-04-17T05:32:05.324Z,200
2016-04-17T05:32:39.668Z,215
2016-04-17T05:34:10.986Z,510
2016-04-17T05:34:52.427Z,665
2016-04-17T05:35:39.739Z,725
2016-04-17T05:36:58.963Z,750
2016-04-17T05:37:39.775Z,770
2016-04-17T05:39:36.562Z,805
2016-04-17T05:39:49.171Z,815
2016-04-17T05:41:46.161Z,860
2016-04-17T05:44:04.685Z,840
2016-04-17T05:46:08.065Z,820
2016-04-17T05:47:27.146Z,830
2016-04-17T05:48:14.446Z,860
2016-04-17T05:50:12.014Z,870
2016-04-17T05:50:50.279Z,870
2016-04-17T05:51:24.454Z,900
2016-04-17T05:53:27.240Z,900
2016-04-17T05:53:59.025Z,915
2016-04-17T05:54:40.290Z,895
2016-04-17T05:55:59.826Z,900
2016-04-17T05:56:40.811Z,930
2016-04-17T05:57:39.875Z,950
2016-04-17T05:58:40.317Z,960
2016-04-17T05:59:40.022Z,980
2016-04-17T06:00:39.947Z,970
2016-04-17T06:01:40.105Z,1010
2016-04-17T06:02:40.172Z,990
2016-04-17T06:03:40.101Z,1000
2016-04-17T06:04:40.346Z,985
2016-04-17T06:05:40.171Z,1005
2016-04-17T06:06:40.432Z,1015
2016-04-17T06:07:40.318Z,1030
2016-04-17T06:08:52.931Z,1050
2016-04-17T06:09:40.385Z,1055
2016-04-17T06:10:40.918Z,1100
2016-04-17T06:11:40.544Z,1115
2016-04-17T06:12:40.499Z,1135
2016-04-17T06:13:40.647Z,1150
2016-04-17T06:14:40.563Z,1130
2016-04-17T06:15:40.649Z,1155
2016-04-17T06:16:41.251Z,1165
2016-04-17T06:17:40.680Z,1185
2016-04-17T06:18:40.653Z,1215
2016-04-17T06:19:40.721Z,1195
2016-04-17T06:20:40.725Z,1195
2016-04-17T06:21:40.668Z,1260
2016-04-17T06:22:40.875Z,1240
2016-04-17T06:23:40.816Z,1215
2016-04-17T06:24:40.867Z,1225
2016-04-17T06:25:41.088Z,1240
2016-04-17T06:26:40.905Z,1285
2016-04-17T06:27:42.331Z,1270
2016-04-17T06:28:40.958Z,1280
2016-04-17T06:29:40.976Z,1265
2016-04-17T06:30:41.041Z,1285
2016-04-17T06:31:41.138Z,1300
2016-04-17T06:32:41.125Z,1290
2016-04-17T06:33:53.955Z,1275
2016-04-17T06:34:41.146Z,1280
2016-04-17T06:35:53.899Z,1325
2016-04-17T06:36:41.182Z,1290
2016-04-17T06:37:41.201Z,1285
2016-04-17T06:38:41.235Z,1345
2016-04-17T06:39:41.252Z,1345
2016-04-17T06:40:41.694Z,1315
2016-04-17T06:41:41.290Z,1340
2016-04-17T06:42:41.339Z,1380
2016-04-17T06:43:41.358Z,1365
2016-04-17T06:44:41.454Z,1360
2016-04-17T06:45:40.676Z,1395
2016-04-17T06:46:41.444Z,1410
2016-04-17T06:47:41.462Z,1405
2016-04-17T06:48:41.559Z,1405
2016-04-17T06:49:40.780Z,1420
2016-04-17T06:50:41.548Z,1455
2016-04-17T06:51:54.410Z,1405
2016-04-17T06:52:41.601Z,1415
2016-04-17T06:53:41.634Z,1445
2016-04-17T06:54:41.668Z,1455
2016-04-17T06:55:41.702Z,1440
2016-04-17T06:56:54.455Z,1440
2016-04-17T06:57:41.818Z,1505
2016-04-17T06:58:41.788Z,1495
2016-04-17T06:59:42.042Z,1505
2016-04-17T07:00:42.028Z,1470
2016-04-17T07:01:42.062Z,1440
2016-04-17T07:02:42.159Z,1475
2016-04-17T07:03:48.208Z,1485
2016-04-17T07:04:42.227Z,1480
2016-04-17T07:05:48.292Z,1480
2016-04-17T07:06:42.200Z,1500
2016-04-17T07:07:42.047Z,1500
2016-04-17T07:08:54.988Z,1485
2016-04-17T07:09:42.068Z,1500
2016-04-17T07:11:01.495Z,1515
2016-04-17T07:11:42.167Z,1490
2016-04-17T07:13:07.876Z,1465
2016-04-17T07:13:42.907Z,1490
2016-04-17T07:15:39.224Z,1525
2016-04-17T07:15:51.787Z,1540
2016-04-17T07:17:54.448Z,1515
2016-04-17T07:18:26.062Z,1510
2016-04-17T07:19:07.142Z,1525
2016-04-17T07:20:07.082Z,1585
2016-04-17T07:21:09.162Z,1600
2016-04-17T07:22:07.119Z,1615
2016-04-17T07:23:07.184Z,1575
2016-04-17T07:24:07.218Z,1585
2016-04-17T07:25:07.251Z,1500
2016-04-17T07:26:07.911Z,1270
2016-04-17T07:27:07.304Z,1115
2016-04-17T07:28:07.339Z,1240
2016-04-17T07:29:07.372Z,1455
2016-04-17T07:30:07.484Z,1555
2016-04-17T07:31:07.408Z,1595
2016-04-17T07:32:20.177Z,1535
2016-04-17T07:33:20.195Z,1370
2016-04-17T07:34:20.245Z,1340
2016-04-17T07:35:07.513Z,1350
2016-04-17T07:36:07.547Z,1080
2016-04-17T07:37:07.581Z,1560
2016-04-17T07:38:07.600Z,1470
2016-04-17T07:39:07.664Z,1520
2016-04-17T07:40:07.636Z,1525
2016-04-17T07:41:07.763Z,1475
2016-04-17T07:42:07.672Z,1485
2016-04-17T07:43:07.769Z,1505
2016-04-17T07:44:07.788Z,570
2016-04-17T07:45:07.821Z,1125
2016-04-17T07:46:07.824Z,345
2016-04-17T07:47:07.857Z,265
2016-04-17T07:48:08.657Z,1255
2016-04-17T07:49:07.910Z,480
2016-04-17T07:50:08.256Z,290
2016-04-17T07:51:20.181Z,485
2016-04-17T07:52:08.028Z,325
2016-04-17T07:53:58.518Z,325
2016-04-17T07:54:26.940Z,315
2016-04-17T07:55:11.176Z,305
2016-04-17T07:57:46.291Z,375
2016-04-17T07:58:20.653Z,370
2016-04-17T08:00:23.284Z,380
2016-04-17T08:01:01.536Z,360
2016-04-17T08:01:35.895Z,365
2016-04-17T08:02:36.023Z,380
2016-04-17T08:03:35.947Z,315
2016-04-17T08:04:36.138Z,270
2016-04-17T08:05:35.984Z,300
2016-04-17T08:06:48.861Z,295
2016-04-17T08:07:36.036Z,300
2016-04-17T08:09:57.858Z,305
2016-04-17T08:11:30.594Z,275
2016-04-17T08:11:43.204Z,265
2016-04-17T08:13:40.193Z,305
2016-04-17T08:13:52.849Z,285
2016-04-17T08:16:02.546Z,355
2016-04-17T08:16:14.968Z,365
2016-04-17T08:17:14.970Z,390
2016-04-17T08:18:15.018Z,355
2016-04-17T08:19:15.053Z,330
2016-04-17T08:20:15.196Z,310
2016-04-17T08:21:27.808Z,305
2016-04-17T08:22:15.109Z,285
2016-04-17T08:24:12.082Z,305
2016-04-17T08:25:21.647Z,290
2016-04-17T08:25:34.334Z,275
2016-04-17T08:26:34.244Z,265
2016-04-17T08:27:34.262Z,310
2016-04-17T08:28:35.718Z,300
2016-04-17T08:29:34.299Z,315
2016-04-17T08:30:37.364Z,320
2016-04-17T08:31:35.773Z,305
2016-04-17T08:32:53.572Z,305
2016-04-17T08:33:34.341Z,290
2016-04-17T08:34:59.924Z,290
2016-04-17T08:35:47.158Z,280
2016-04-17T08:37:05.820Z,245
2016-04-17T08:37:53.664Z,270
2016-04-17T08:39:05.810Z,285
2016-04-17T08:39:48.685Z,310
2016-04-17T08:40:34.532Z,320
2016-04-17T08:41:34.550Z,320
2016-04-17T08:42:34.569Z,330
2016-04-17T08:43:34.572Z,295
2016-04-17T08:44:35.996Z,270
2016-04-17T08:45:34.732Z,255
2016-04-17T08:46:34.657Z,280
2016-04-17T08:47:34.769Z,275
2016-04-17T08:48:35.929Z,270
2016-04-17T08:49:34.727Z,275
2016-04-17T08:50:47.480Z,295
2016-04-17T08:51:36.171Z,270
2016-04-17T08:53:31.754Z,255
2016-04-17T08:54:10.022Z,255
2016-04-17T08:54:57.100Z,280
2016-04-17T08:57:25.265Z,265
2016-04-17T08:57:59.578Z,280
2016-04-17T08:59:30.895Z,375
2016-04-17T09:00:00.239Z,395
2016-04-17T09:00:59.648Z,440
2016-04-17T09:01:59.870Z,460
2016-04-17T09:03:12.453Z,425
2016-04-17T09:03:59.703Z,365
2016-04-17T09:04:59.736Z,330
2016-04-17T09:05:59.755Z,290
2016-04-17T09:07:00.383Z,295
2016-04-17T09:07:59.823Z,260
2016-04-17T09:08:59.794Z,275
2016-04-17T09:09:59.828Z,285
2016-04-17T09:11:00.033Z,280
2016-04-17T09:12:12.586Z,280
2016-04-17T09:12:59.868Z,295
2016-04-17T09:13:59.886Z,310
2016-04-17T09:15:04.033Z,335
2016-04-17T09:15:59.955Z,360
2016-04-17T09:16:59.972Z,390
2016-04-17T09:17:59.975Z,410
2016-04-17T09:19:06.308Z,395
2016-04-17T09:19:59.996Z,350
2016-04-17T09:21:19.360Z,330
2016-04-17T09:22:00.251Z,325
2016-04-17T09:23:25.912Z,300
2016-04-17T09:24:00.709Z,320
2016-04-17T09:25:00.135Z,320
2016-04-17T09:26:00.168Z,330
2016-04-17T09:27:00.124Z,355
2016-04-17T09:28:00.174Z,345
2016-04-17T09:29:00.224Z,345
2016-04-17T09:30:00.414Z,375
2016-04-17T09:31:00.276Z,375
2016-04-17T09:32:00.356Z,365
2016-04-17T09:33:00.281Z,335
2016-04-17T09:34:00.425Z,310
2016-04-17T09:35:00.318Z,290
2016-04-17T09:36:00.336Z,265
2016-04-17T09:37:13.264Z,265
2016-04-17T09:38:00.326Z,295
2016-04-17T09:39:19.581Z,285
2016-04-17T09:40:00.425Z,280
2016-04-17T09:41:00.444Z,280
2016-04-17T09:42:13.183Z,305
2016-04-17T09:43:00.589Z,295
2016-04-17T09:44:19.735Z,280
2016-04-17T09:45:00.563Z,265
2016-04-17T09:46:00.550Z,255
2016-04-17T09:47:00.569Z,250
2016-04-17T09:48:00.602Z,245
2016-04-17T09:49:00.606Z,245
2016-04-17T09:50:00.593Z,250
2016-04-17T09:51:00.642Z,255
2016-04-17T09:52:00.677Z,260
2016-04-17T09:53:00.694Z,265
2016-04-17T09:54:00.729Z,270
2016-04-17T09:55:00.747Z,275
2016-04-17T09:56:00.874Z,255
2016-04-17T09:57:00.596Z,265
2016-04-17T09:58:00.958Z,285
2016-04-17T09:59:00.804Z,280
2016-04-17T10:00:00.806Z,270
2016-04-17T10:01:00.856Z,260
2016-04-17T10:02:00.812Z,265
2016-04-17T10:03:13.646Z,280
2016-04-17T10:04:00.912Z,290
2016-04-17T10:05:00.962Z,310
2016-04-17T10:06:13.717Z,325
2016-04-17T10:07:00.795Z,335
2016-04-17T10:08:01.001Z,365
2016-04-17T10:09:01.081Z,395
2016-04-17T10:10:01.005Z,405
2016-04-17T10:11:01.103Z,405
2016-04-17T10:12:01.105Z,385
2016-04-17T10:13:01.092Z,370
2016-04-17T10:14:01.110Z,385
2016-04-17T10:15:01.144Z,380
2016-04-17T10:16:13.728Z,370
2016-04-17T10:17:01.744Z,355
2016-04-17T10:19:08.783Z,305
2016-04-17T10:20:54.847Z,305
2016-04-17T10:21:07.441Z,310
2016-04-17T10:22:07.460Z,330
2016-04-17T10:23:07.571Z,340
2016-04-17T10:24:13.812Z,385
2016-04-17T10:25:07.515Z,380
2016-04-17T10:26:26.817Z,410
2016-04-17T10:27:07.551Z,420
2016-04-17T10:29:04.713Z,375
2016-04-17T10:29:17.310Z,365
2016-04-17T10:30:17.312Z,320
2016-04-17T10:31:17.331Z,310
2016-04-17T10:32:17.364Z,320
2016-04-17T10:33:17.351Z,350
2016-04-17T10:34:23.667Z,360
2016-04-17T10:35:23.716Z,335
2016-04-17T10:36:30.203Z,310
2016-04-17T10:37:17.472Z,305
2016-04-17T10:38:17.568Z,315
2016-04-17T10:39:17.478Z,325
2016-04-17T10:40:17.495Z,325
2016-04-17T10:41:17.373Z,310
2016-04-17T10:42:17.563Z,270
2016-04-17T10:43:17.613Z,300
2016-04-17T10:44:17.600Z,305
2016-04-17T10:45:17.633Z,310
2016-04-17T10:46:17.637Z,335
2016-04-17T10:47:17.779Z,365
2016-04-17T10:48:17.689Z,410
2016-04-17T10:49:30.505Z,435
2016-04-17T10:50:17.741Z,440
2016-04-17T10:52:14.716Z,385
2016-04-17T10:53:24.280Z,355
2016-04-17T10:54:02.561Z,345
2016-04-17T10:54:36.861Z,330
2016-04-17T10:56:38.835Z,355
2016-04-17T10:56:51.523Z,360
2016-04-17T10:57:51.478Z,375
2016-04-17T10:58:51.496Z,385
2016-04-17T10:59:51.500Z,355
2016-04-17T11:00:51.534Z,335
2016-04-17T11:01:51.615Z,325
2016-04-17T11:02:57.898Z,315
2016-04-17T11:04:04.448Z,315
2016-04-17T11:04:51.623Z,335
2016-04-17T11:05:51.797Z,380
2016-04-17T11:06:51.675Z,345
2016-04-17T11:07:51.708Z,360
2016-04-17T11:08:51.695Z,405
2016-04-17T11:09:51.714Z,420
2016-04-17T11:10:51.747Z,430
2016-04-17T11:11:51.844Z,445
2016-04-17T11:12:51.800Z,450
2016-04-17T11:13:51.834Z,450
2016-04-17T11:14:51.853Z,460
2016-04-17T11:15:51.839Z,465
2016-04-17T11:16:51.967Z,475
2016-04-17T11:17:51.908Z,480
2016-04-17T11:18:51.941Z,485
2016-04-17T11:20:04.663Z,505
2016-04-17T11:20:51.947Z,515
2016-04-17T11:21:51.981Z,535
2016-04-17T11:22:52.014Z,540
2016-04-17T11:23:52.032Z,540
2016-04-17T11:24:52.066Z,530
2016-04-17T11:25:52.069Z,515
2016-04-17T11:26:52.150Z,500
2016-04-17T11:28:04.871Z,495
2016-04-17T11:28:52.937Z,495
2016-04-17T11:30:11.364Z,475
2016-04-17T11:30:52.379Z,475
2016-04-17T11:31:52.398Z,470
2016-04-17T11:32:52.432Z,465
2016-04-17T11:33:52.356Z,460
2016-04-17T11:34:52.501Z,465
2016-04-17T11:35:52.862Z,470
2016-04-17T11:36:52.583Z,480
2016-04-17T11:37:52.398Z,490
2016-04-17T11:38:52.636Z,505
2016-04-17T11:39:52.389Z,505
2016-04-17T11:40:52.641Z,515
2016-04-17T11:41:52.690Z,535
2016-04-17T11:42:52.568Z,555
2016-04-17T11:43:52.712Z,575
2016-04-17T11:44:58.824Z,590
2016-04-17T11:45:52.717Z,595
2016-04-17T11:46:52.533Z,585
2016-04-17T11:47:52.582Z,595
2016-04-17T11:48:52.631Z,605
2016-04-17T11:49:58.884Z,610
2016-04-17T11:51:04.730Z,600
2016-04-17T11:52:05.389Z,580
2016-04-17T11:52:52.688Z,575
2016-04-17T11:54:11.879Z,585
2016-04-17T11:54:52.741Z,575
2016-04-17T11:56:55.980Z,560
2016-04-17T11:57:08.684Z,560
2016-04-17T11:58:08.593Z,555
2016-04-17T11:59:14.896Z,535
2016-04-17T12:00:14.899Z,515
2016-04-17T12:01:08.508Z,480
2016-04-17T12:02:08.698Z,440
2016-04-17T12:03:08.716Z,400
2016-04-17T12:04:08.719Z,375
2016-04-17T12:05:08.737Z,350
2016-04-17T12:06:08.787Z,335
2016-04-17T12:07:15.057Z,330
2016-04-17T12:08:15.092Z,315
2016-04-17T12:09:28.047Z,305
2016-04-17T12:10:59.378Z,305
2016-04-17T12:11:31.178Z,315
2016-04-17T12:12:24.696Z,330
2016-04-17T12:13:37.667Z,360
2016-04-17T12:14:31.279Z,380
2016-04-17T12:15:38.297Z,390
2016-04-17T12:17:47.537Z,470
2016-04-17T12:18:47.336Z,485
2016-04-17T12:19:52.980Z,480
2016-04-17T12:21:19.361Z,465
2016-04-17T12:21:31.923Z,460
2016-04-17T12:23:30.350Z,410
2016-04-17T12:23:42.913Z,405
2016-04-17T12:25:33.434Z,355
2016-04-17T12:25:58.888Z,345
2016-04-17T12:27:43.049Z,280
2016-04-17T12:27:58.674Z,270
2016-04-17T12:29:58.319Z,230
2016-04-17T12:30:10.898Z,230
2016-04-17T12:31:11.072Z,250
2016-04-17T12:32:10.935Z,305
2016-04-17T12:33:23.737Z,390
2016-04-17T12:34:11.002Z,440
2016-04-17T12:35:30.227Z,515
2016-04-17T12:36:23.760Z,560
2016-04-17T12:39:36.800Z,585
2016-04-17T12:42:48.870Z,560
2016-04-17T12:43:20.685Z,540
2016-04-17T12:45:24.362Z,495
2016-04-17T12:45:37.097Z,475
2016-04-17T12:47:52.181Z,435
2016-04-17T12:49:11.433Z,440
2016-04-17T12:50:04.998Z,455
2016-04-17T12:52:20.319Z,485
2016-04-17T12:52:32.944Z,490
2016-04-17T12:54:29.730Z,480
2016-04-17T12:54:42.183Z,485
2016-04-17T12:56:39.157Z,465
2016-04-17T12:56:51.704Z,465
2016-04-17T12:58:48.757Z,445
2016-04-17T12:59:04.319Z,440
2016-04-17T13:00:32.669Z,440
2016-04-17T13:01:14.203Z,435
2016-04-17T13:02:02.094Z,435
2016-04-17T13:03:20.630Z,440
2016-04-17T13:04:02.099Z,450
2016-04-17T13:05:59.057Z,480
2016-04-17T13:06:11.635Z,485
2016-04-17T13:07:17.937Z,490
2016-04-17T13:08:12.359Z,495
2016-04-17T13:09:11.706Z,465
2016-04-17T13:10:30.945Z,440
2016-04-17T13:11:11.945Z,445
2016-04-17T13:12:31.076Z,435
2016-04-17T13:13:11.779Z,440
2016-04-17T13:14:37.503Z,455
2016-04-17T13:15:18.100Z,460
2016-04-17T13:17:27.198Z,500
2016-04-17T13:17:39.792Z,500
2016-04-17T13:18:39.889Z,500
2016-04-17T13:19:39.845Z,495
2016-04-17T13:20:40.472Z,470
2016-04-17T13:21:52.616Z,445
2016-04-17T13:22:39.947Z,425
2016-04-17T13:24:30.452Z,390
2016-04-17T13:25:02.264Z,385
2016-04-17T13:26:40.144Z,350
2016-04-17T13:27:49.741Z,330
2016-04-17T13:28:47.697Z,320
2016-04-17T13:29:02.369Z,320
2016-04-17T13:30:47.374Z,290
2016-04-17T13:31:03.483Z,300
2016-04-17T13:32:28.083Z,275
2016-04-17T13:33:21.648Z,255
2016-04-17T13:34:59.432Z,255
2016-04-17T13:35:31.013Z,260
2016-04-17T13:37:14.640Z,290
2016-04-17T13:37:40.081Z,300
2016-04-17T13:39:17.758Z,310
2016-04-17T13:39:43.149Z,320
2016-04-17T13:40:30.401Z,325
2016-04-17T13:41:30.404Z,335
2016-04-17T13:42:30.407Z,315
2016-04-17T13:43:30.440Z,305
2016-04-17T13:44:31.100Z,285
2016-04-17T13:45:43.212Z,260
2016-04-17T13:46:30.511Z,255
2016-04-17T13:47:56.233Z,245
2016-04-17T13:48:31.173Z,245
2016-04-17T13:50:27.553Z,240
2016-04-17T13:50:40.428Z,240
2016-04-17T13:52:11.619Z,255
2016-04-17T13:52:52.964Z,260
2016-04-17T13:54:18.627Z,250
2016-04-17T13:55:30.739Z,250
2016-04-17T13:56:14.770Z,250
2016-04-17T13:57:02.475Z,235
2016-04-17T13:58:15.260Z,240
2016-04-17T13:58:56.138Z,270
2016-04-17T13:59:43.390Z,285
2016-04-17T14:01:02.611Z,295
2016-04-17T14:01:44.067Z,300
2016-04-17T14:03:46.088Z,250
2016-04-17T14:04:24.387Z,250
2016-04-17T14:04:58.699Z,265
2016-04-17T14:07:01.424Z,320
2016-04-17T14:07:33.239Z,335
2016-04-17T14:08:13.895Z,345
2016-04-17T14:09:33.260Z,345
2016-04-17T14:10:20.497Z,345
2016-04-17T14:11:33.359Z,365
2016-04-17T14:12:33.362Z,360
2016-04-17T14:14:11.115Z,375
2016-04-17T14:14:42.914Z,400
2016-04-17T14:15:23.745Z,420
2016-04-17T14:16:23.732Z,440
2016-04-17T14:17:36.328Z,460
2016-04-17T14:18:30.081Z,460
2016-04-17T14:19:43.053Z,455
2016-04-17T14:20:36.774Z,440
2016-04-17T14:22:14.371Z,415
2016-04-17T14:22:27.078Z,400
2016-04-17T14:23:58.298Z,360
2016-04-17T14:24:33.301Z,345
2016-04-17T14:25:27.039Z,325
2016-04-17T14:26:46.259Z,300
2016-04-17T14:27:27.309Z,295
2016-04-17T14:28:39.812Z,290
2016-04-17T14:29:27.112Z,295
2016-04-17T14:30:27.130Z,295
2016-04-17T14:31:27.180Z,305
2016-04-17T14:32:27.198Z,320
2016-04-17T14:33:27.247Z,340
2016-04-17T14:34:27.219Z,365
2016-04-17T14:35:33.519Z,385
2016-04-17T14:36:28.708Z,400
2016-04-17T14:37:45.774Z,420
2016-04-17T14:38:30.324Z,425
2016-04-17T14:39:53.029Z,415
2016-04-17T14:40:27.516Z,410
2016-04-17T14:41:58.675Z,415
2016-04-17T14:42:28.818Z,410
2016-04-17T14:43:27.243Z,395
2016-04-17T14:44:27.449Z,390
2016-04-17T14:45:27.468Z,390
2016-04-17T14:46:27.548Z,400
2016-04-17T14:47:27.504Z,425